Time;durP1;ratioP1;P1;durP2;ratioP2;P2;SDS_P1;SDS_P2;PMS_P1;PMS_P2;Temp;Humidity;BMP_temperature;BMP_pressure;BME280_temperature;BME280_humidity;BME280_pressure;Samples;Min_cycle;Max_cycle;Signal;HPM_P1;HPM_P2
2021/05/07 00:02:07;;;;;;;1.70;0.70;;;;;;;7.67;57.64;99069.03;5052044;28;20033;-53
2021/05/07 00:04:47;;;;;;;1.40;0.77;;;;;;;7.57;57.80;99044.09;5051595;28;20043;-57
2021/05/07 00:07:12;;;;;;;1.13;0.90;;;;;;;7.67;57.61;99068.19;5052321;28;20028;-52
2021/05/07 00:09:38;;;;;;;2.38;0.95;;;;;;;7.60;57.72;99067.84;5054174;28;20063;-55
2021/05/07 00:12:05;;;;;;;4.40;1.25;;;;;;;7.61;58.28;99067.72;5054007;28;20511;-52
2021/05/07 00:14:31;;;;;;;2.35;1.60;;;;;;;7.67;57.96;99079.69;5053691;28;20136;-52
2021/05/07 00:16:57;;;;;;;3.92;0.95;;;;;;;7.46;57.98;99045.81;5053629;28;20111;-56
2021/05/07 00:19:23;;;;;;;5.18;2.10;;;;;;;7.68;58.01;99081.38;5053684;28;20447;-53
2021/05/07 00:21:56;;;;;;;1.63;1.30;;;;;;;7.60;57.77;99084.66;5053937;28;20036;-56
2021/05/07 00:24:22;;;;;;;1.83;1.00;;;;;;;7.65;58.57;99091.44;5053544;28;20057;-50
2021/05/07 00:26:47;;;;;;;2.97;1.30;;;;;;;7.64;58.21;99087.09;5053583;28;20041;-54
2021/05/07 00:29:13;;;;;;;2.75;1.42;;;;;;;7.22;58.31;99023.81;5053397;28;20117;-53
2021/05/07 00:31:38;;;;;;;3.30;1.60;;;;;;;7.60;58.24;99094.50;5068791;28;20515;-57
2021/05/07 00:34:10;;;;;;;2.13;1.40;;;;;;;7.56;58.52;99077.91;5052018;28;20094;-58
2021/05/07 00:36:36;;;;;;;1.90;1.38;;;;;;;7.58;58.08;99088.41;5053609;28;20454;-58
2021/05/07 00:39:04;;;;;;;2.85;1.40;;;;;;;7.60;58.92;99095.31;5053060;28;20227;-57
2021/05/07 00:41:30;;;;;;;2.42;1.58;;;;;;;7.63;58.74;99098.72;5044026;28;20152;-57
2021/05/07 00:43:56;;;;;;;3.33;1.30;;;;;;;7.64;58.93;99095.94;5051856;28;20036;-51
2021/05/07 00:46:22;;;;;;;3.90;1.80;;;;;;;7.60;58.58;99087.34;5053023;28;20067;-54
2021/05/07 00:48:47;;;;;;;1.90;1.60;;;;;;;7.67;58.37;99087.69;5052115;28;20036;-56
2021/05/07 00:51:13;;;;;;;1.70;1.60;;;;;;;7.74;58.33;99112.88;5052735;28;20079;-56
2021/05/07 00:53:39;;;;;;;3.38;1.80;;;;;;;7.78;58.51;99093.97;5053062;28;20029;-61
2021/05/07 00:56:05;;;;;;;2.40;1.48;;;;;;;7.75;58.09;99100.41;5053300;28;20097;-53
2021/05/07 00:58:30;;;;;;;3.05;1.70;;;;;;;7.65;58.15;99075.44;5051487;28;20461;-53
2021/05/07 01:00:56;;;;;;;3.63;1.70;;;;;;;7.76;58.12;99102.09;5052992;28;20390;-58
2021/05/07 01:03:22;;;;;;;2.42;1.33;;;;;;;7.75;58.35;99087.06;5053019;28;20028;-52
2021/05/07 01:05:47;;;;;;;2.47;1.60;;;;;;;7.61;58.47;99064.22;5052673;28;20068;-57
2021/05/07 01:08:15;;;;;;;3.88;1.42;;;;;;;7.64;58.49;99076.41;5052253;28;20043;-57
2021/05/07 01:10:40;;;;;;;1.73;1.52;;;;;;;6.72;58.19;98929.25;5052856;28;20120;-57
2021/05/07 01:13:06;;;;;;;3.47;1.25;;;;;;;7.72;58.46;99084.66;5052916;28;20587;-57
2021/05/07 01:15:31;;;;;;;1.65;1.45;;;;;;;7.54;58.35;99052.34;5052418;28;20037;-59
2021/05/07 01:17:58;;;;;;;3.45;1.27;;;;;;;7.71;58.34;99086.47;5051698;28;20075;-52
2021/05/07 01:20:23;;;;;;;4.05;1.55;;;;;;;7.71;58.19;99075.81;5052447;28;20345;-54
2021/05/07 01:22:51;;;;;;;2.05;1.25;;;;;;;7.54;57.81;99050.53;5052132;28;20036;-58
2021/05/07 01:25:22;;;;;;;3.63;1.17;;;;;;;7.32;57.82;99014.13;5052223;28;20061;-58
2021/05/07 01:27:51;;;;;;;3.35;1.35;;;;;;;7.67;57.66;99086.81;5052586;28;20508;-57
2021/05/07 01:30:31;;;;;;;3.17;1.40;;;;;;;7.58;58.31;99059.97;5052048;28;20029;-56
2021/05/07 01:32:57;;;;;;;3.75;1.40;;;;;;;7.67;57.95;99089.50;5052264;28;20059;-59
2021/05/07 01:35:26;;;;;;;2.45;1.40;;;;;;;7.65;58.12;99083.44;5052431;28;20179;-56
2021/05/07 01:37:54;;;;;;;3.38;1.42;;;;;;;7.64;58.13;99081.75;5052238;28;20033;-57
2021/05/07 01:40:22;;;;;;;1.48;1.38;;;;;;;7.60;58.03;99081.16;5052035;28;20509;-57
2021/05/07 01:42:48;;;;;;;2.53;1.70;;;;;;;7.65;57.91;99097.63;5052054;28;20036;-58
2021/05/07 01:45:15;;;;;;;3.03;1.60;;;;;;;7.40;58.05;99048.13;5051976;28;20432;-58
2021/05/07 01:47:42;;;;;;;2.67;1.33;;;;;;;7.59;57.74;99077.66;5052357;28;20043;-55
2021/05/07 01:50:10;;;;;;;3.58;1.67;;;;;;;7.65;57.78;99088.78;5052425;28;20072;-55
2021/05/07 01:52:36;;;;;;;3.38;1.30;;;;;;;7.71;58.06;99099.78;5050516;28;20504;-55
2021/05/07 01:55:06;;;;;;;4.28;1.80;;;;;;;7.72;58.20;99098.00;5052028;28;20036;-58
2021/05/07 01:57:33;;;;;;;2.00;1.80;;;;;;;7.75;57.98;99097.75;5051988;28;20478;-58
2021/05/07 01:59:59;;;;;;;2.00;1.70;;;;;;;7.73;57.80;99097.00;5051442;28;20035;-62
2021/05/07 02:02:24;;;;;;;2.63;1.80;;;;;;;7.75;57.94;99093.25;5051513;28;20036;-51
2021/05/07 02:04:50;;;;;;;3.58;1.70;;;;;;;7.85;57.81;99120.00;5051804;28;20029;-57
2021/05/07 02:07:16;;;;;;;2.08;1.88;;;;;;;7.87;57.83;99112.72;5051414;28;20040;-56
2021/05/07 02:09:41;;;;;;;3.08;2.15;;;;;;;7.83;57.89;99108.63;5051779;28;20028;-55
2021/05/07 02:12:07;;;;;;;2.78;1.80;;;;;;;7.92;57.77;99119.50;5050156;28;20036;-51
2021/05/07 02:14:34;;;;;;;5.65;2.05;;;;;;;7.94;57.69;99117.53;5051777;28;20037;-58
2021/05/07 02:17:01;;;;;;;3.05;2.20;;;;;;;7.87;57.65;99102.06;5051392;28;20503;-55
2021/05/07 02:19:26;;;;;;;7.20;2.35;;;;;;;7.72;57.34;99064.19;5050482;28;20463;-58
2021/05/07 02:21:52;;;;;;;2.83;2.20;;;;;;;8.11;57.23;99119.69;5051282;28;20064;-54
2021/05/07 02:24:17;;;;;;;8.20;2.60;;;;;;;8.07;57.06;99112.91;5051489;28;20088;-55
2021/05/07 02:26:43;;;;;;;3.13;2.38;;;;;;;8.19;56.82;99109.22;5051485;28;20416;-58
2021/05/07 02:29:09;;;;;;;4.20;1.80;;;;;;;8.40;56.71;99115.59;5051190;28;20166;-53
2021/05/07 02:31:34;;;;;;;3.03;2.10;;;;;;;8.48;56.24;99118.47;5051231;28;20037;-56
2021/05/07 02:34:00;;;;;;;2.95;1.70;;;;;;;8.48;55.95;99108.66;5051070;28;20040;-56
2021/05/07 02:36:25;;;;;;;3.00;1.80;;;;;;;8.35;55.47;99078.63;5050921;28;20087;-56
2021/05/07 02:38:51;;;;;;;2.00;1.40;;;;;;;8.43;55.52;99081.50;5050532;28;20071;-57
2021/05/07 02:41:16;;;;;;;2.63;1.80;;;;;;;8.72;55.47;99117.41;5051031;28;20127;-55
2021/05/07 02:43:42;;;;;;;4.07;1.98;;;;;;;8.81;55.19;99132.69;5051150;28;20524;-53
2021/05/07 02:46:07;;;;;;;3.20;1.83;;;;;;;8.69;55.06;99112.34;5050388;28;20044;-56
2021/05/07 02:48:33;;;;;;;2.05;1.65;;;;;;;8.84;55.04;99143.09;5051140;28;20037;-56
2021/05/07 02:50:58;;;;;;;2.08;1.67;;;;;;;8.86;54.76;99135.78;5050805;28;20473;-58
2021/05/07 02:53:24;;;;;;;2.92;1.85;;;;;;;8.23;54.58;99027.16;5050762;28;20056;-56
2021/05/07 02:55:49;;;;;;;2.05;1.73;;;;;;;8.66;55.05;99097.44;5050480;28;20032;-56
2021/05/07 02:58:15;;;;;;;6.38;2.00;;;;;;;9.05;54.58;99156.44;5051104;28;20037;-56
2021/05/07 03:00:40;;;;;;;2.15;1.70;;;;;;;9.01;54.77;99141.66;5050494;28;20516;-55
2021/05/07 03:03:06;;;;;;;3.45;1.70;;;;;;;9.12;54.26;99145.22;5050589;28;20115;-54
2021/05/07 03:05:32;;;;;;;2.35;2.15;;;;;;;9.19;54.19;99143.72;5050324;28;20197;-56
2021/05/07 03:07:58;;;;;;;6.25;2.20;;;;;;;9.19;54.06;99143.72;5050572;28;20123;-58
2021/05/07 03:10:26;;;;;;;3.80;1.85;;;;;;;9.28;54.02;99164.31;5050215;28;20090;-52
2021/05/07 03:12:51;;;;;;;5.53;2.20;;;;;;;8.85;53.70;99079.84;5049076;28;20033;-51
2021/05/07 03:15:17;;;;;;;2.20;2.00;;;;;;;9.05;53.67;99107.53;5050444;28;20029;-58
2021/05/07 03:17:42;;;;;;;4.03;2.17;;;;;;;9.33;53.39;99167.41;5050473;28;20033;-58
2021/05/07 03:20:08;;;;;;;5.40;2.05;;;;;;;9.25;53.50;99151.22;5050173;28;20048;-54
2021/05/07 03:22:34;;;;;;;2.95;1.95;;;;;;;9.30;53.08;99143.63;5050434;28;20491;-56
2021/05/07 03:24:59;;;;;;;4.63;2.20;;;;;;;9.51;52.87;99177.50;5049971;28;20057;-56
2021/05/07 03:27:25;;;;;;;3.65;2.40;;;;;;;9.50;52.83;99165.13;5050031;28;20087;-56
2021/05/07 03:29:50;;;;;;;3.95;1.90;;;;;;;9.58;52.73;99164.44;5050044;28;20080;-59
2021/05/07 03:32:16;;;;;;;3.22;1.98;;;;;;;9.82;52.06;99179.31;5055646;28;20040;-55
2021/05/07 03:34:41;;;;;;;2.63;1.67;;;;;;;9.98;51.61;99174.28;5056356;28;20037;-54
2021/05/07 03:37:07;;;;;;;2.97;2.00;;;;;;;10.23;50.85;99172.09;5055452;28;20029;-57
2021/05/07 03:39:32;;;;;;;3.20;1.90;;;;;;;10.33;49.64;99107.91;5055711;28;20037;-60
2021/05/07 03:41:58;;;;;;;2.90;2.05;;;;;;;11.86;47.40;99191.13;5057023;28;20033;-56
2021/05/07 03:44:23;;;;;;;6.70;1.85;;;;;;;12.87;44.76;99175.97;5057054;28;20040;-58
2021/05/07 03:46:49;;;;;;;4.30;1.98;;;;;;;13.90;42.54;99171.78;5056878;28;20151;-59
2021/05/07 03:49:14;;;;;;;3.90;1.90;;;;;;;14.85;40.36;99159.06;5057049;28;20114;-59
2021/05/07 03:51:39;;;;;;;5.75;2.00;;;;;;;15.88;38.21;99181.81;5056899;28;20115;-56
2021/05/07 03:54:05;;;;;;;2.63;2.00;;;;;;;16.48;36.57;99111.13;5056741;28;20041;-58
2021/05/07 03:56:31;;;;;;;4.53;2.05;;;;;;;17.74;34.79;99169.34;5056608;28;20087;-56
2021/05/07 03:58:56;;;;;;;5.47;1.70;;;;;;;17.97;33.44;99103.38;5057031;28;20476;-55
2021/05/07 04:01:24;;;;;;;3.78;2.00;;;;;;;18.80;32.29;99143.69;5056730;28;20041;-53
2021/05/07 04:03:50;;;;;;;3.63;1.60;;;;;;;19.38;31.52;99172.56;5056623;28;20053;-60
2021/05/07 04:06:18;;;;;;;3.38;1.70;;;;;;;19.41;31.07;99163.22;5056725;28;20071;-54
2021/05/07 04:08:47;;;;;;;2.85;1.77;;;;;;;19.55;30.88;99172.28;5056738;28;20033;-63
2021/05/07 04:13:42;;;;;;;3.92;1.98;;;;;;;20.88;28.47;99189.38;5071949;28;20040;-60
2021/05/07 04:16:09;;;;;;;3.90;1.60;;;;;;;21.46;27.55;99174.31;5056146;28;20102;-55
2021/05/07 04:18:35;;;;;;;2.67;1.80;;;;;;;21.79;26.31;99105.34;5056210;28;20029;-55
2021/05/07 04:21:01;;;;;;;3.13;1.83;;;;;;;23.12;25.38;99188.53;5056331;28;20041;-56
2021/05/07 04:23:27;;;;;;;5.88;1.85;;;;;;;23.83;24.39;99186.44;5056170;28;20061;-58
2021/05/07 04:25:53;;;;;;;2.85;1.95;;;;;;;24.59;23.16;99185.31;5056465;28;20159;-60
2021/05/07 04:28:19;;;;;;;4.35;2.13;;;;;;;25.29;22.14;99189.31;5056884;28;20506;-58
2021/05/07 04:30:46;;;;;;;2.10;1.90;;;;;;;25.76;21.32;99154.78;5056284;28;20095;-56
2021/05/07 04:33:11;;;;;;;2.33;2.03;;;;;;;26.71;20.21;99198.44;5056156;28;20952;-58
2021/05/07 04:35:37;;;;;;;2.80;2.00;;;;;;;26.92;19.96;99160.38;5056065;28;20063;-58
2021/05/07 04:38:03;;;;;;;2.47;1.98;;;;;;;27.40;19.42;99198.53;5056283;28;20029;-59
2021/05/07 04:40:29;;;;;;;4.93;2.22;;;;;;;27.47;18.71;99193.69;5056408;28;20032;-60
2021/05/07 04:42:54;;;;;;;2.65;1.80;;;;;;;27.27;18.61;99178.56;5054162;28;20106;-58
2021/05/07 04:45:20;;;;;;;2.13;1.90;;;;;;;27.11;18.90;99185.69;5053452;28;20477;-57
2021/05/07 04:47:45;;;;;;;5.07;2.10;;;;;;;27.03;18.89;99203.44;5052880;28;20044;-59
2021/05/07 04:50:13;;;;;;;2.65;1.80;;;;;;;27.11;18.75;99201.38;5052837;28;20202;-59
2021/05/07 04:52:39;;;;;;;3.88;2.20;;;;;;;27.05;18.85;99203.19;5052735;28;20481;-58
2021/05/07 04:55:05;;;;;;;4.90;2.40;;;;;;;26.39;18.92;99171.50;5052836;28;20045;-59
2021/05/07 04:57:31;;;;;;;4.85;2.13;;;;;;;26.13;19.40;99170.94;5052681;28;20474;-59
2021/05/07 04:59:56;;;;;;;4.65;2.30;;;;;;;26.65;19.36;99215.91;5052654;28;20037;-59
2021/05/07 05:02:22;;;;;;;2.65;2.17;;;;;;;26.47;19.18;99204.03;5053254;28;20037;-60
2021/05/07 05:04:48;;;;;;;3.80;1.83;;;;;;;25.85;19.60;99207.38;5052984;28;20349;-58
2021/05/07 05:07:14;;;;;;;3.42;1.55;;;;;;;25.80;19.76;99205.31;5052691;28;20040;-61
2021/05/07 05:09:39;;;;;;;3.60;1.88;;;;;;;26.48;18.59;99205.69;5052840;28;20041;-56
2021/05/07 05:12:06;;;;;;;4.57;1.77;;;;;;;27.44;17.67;99214.28;5052519;28;20036;-58
2021/05/07 05:14:31;;;;;;;3.15;1.73;;;;;;;28.58;16.56;99190.25;5052573;28;20057;-56
2021/05/07 05:16:57;;;;;;;3.63;1.95;;;;;;;30.35;15.21;99210.63;5052578;28;20086;-57
2021/05/07 05:19:23;;;;;;;4.53;2.13;;;;;;;31.86;14.21;99208.84;5052620;28;20037;-54
2021/05/07 05:21:48;;;;;;;4.90;1.50;;;;;;;33.20;12.72;99195.41;5052491;28;20033;-57
2021/05/07 05:24:14;;;;;;;4.32;1.70;;;;;;;34.52;11.63;99208.50;5052228;28;20064;-57
2021/05/07 05:26:39;;;;;;;4.43;1.60;;;;;;;35.52;11.20;99207.53;5052717;28;20052;-56
2021/05/07 05:29:05;;;;;;;1.85;1.30;;;;;;;36.44;10.38;99211.59;5052146;28;20033;-58
2021/05/07 05:31:30;;;;;;;1.83;1.20;;;;;;;36.02;10.52;99212.44;5052047;28;20060;-57
2021/05/07 05:33:56;;;;;;;3.65;1.27;;;;;;;35.38;10.90;99203.84;5052299;28;20431;-58
2021/05/07 05:36:23;;;;;;;6.00;1.40;;;;;;;35.78;10.70;99207.84;5052590;28;20115;-57
2021/05/07 05:38:48;;;;;;;4.72;1.50;;;;;;;36.22;10.00;99209.56;5051966;28;20142;-58
2021/05/07 05:41:14;;;;;;;2.78;1.27;;;;;;;35.94;9.87;99226.25;5051807;28;20539;-59
2021/05/07 05:43:40;;;;;;;2.58;1.38;;;;;;;35.63;10.30;99213.72;5051958;28;20075;-57
2021/05/07 05:46:05;;;;;;;2.08;1.10;;;;;;;34.70;10.88;99202.09;5052206;28;20055;-59
2021/05/07 05:48:31;;;;;;;1.25;0.88;;;;;;;35.14;10.12;99210.38;5051933;28;20123;-58
2021/05/07 05:50:57;;;;;;;5.40;2.70;;;;;;;35.44;9.68;99183.13;5051508;28;20087;-54
2021/05/07 05:53:22;;;;;;;3.45;1.08;;;;;;;36.04;9.24;99215.72;5052180;28;20032;-57
2021/05/07 05:55:48;;;;;;;3.30;1.30;;;;;;;36.52;8.61;99184.97;5050735;28;20033;-60
2021/05/07 05:58:13;;;;;;;2.15;0.90;;;;;;;37.77;7.94;99211.47;5051435;28;20035;-57
2021/05/07 06:00:39;;;;;;;1.98;0.90;;;;;;;38.73;7.27;99219.34;5051600;28;20120;-60
2021/05/07 06:03:05;;;;;;;2.65;1.10;;;;;;;39.62;6.74;99220.09;5051606;28;20041;-61
2021/05/07 06:05:31;;;;;;;2.58;1.10;;;;;;;39.25;7.12;99217.69;5050675;28;20127;-57
2021/05/07 06:07:56;;;;;;;3.17;2.00;;;;;;;39.81;6.55;99216.91;5051696;28;20037;-62
2021/05/07 06:10:22;;;;;;;3.65;1.25;;;;;;;39.87;6.38;99209.97;5051845;28;20041;-59
2021/05/07 06:12:49;;;;;;;1.33;0.88;;;;;;;40.24;6.31;99229.09;5051317;28;20037;-59
2021/05/07 06:15:17;;;;;;;1.10;1.00;;;;;;;40.88;5.82;99232.81;5051544;28;20136;-61
2021/05/07 06:17:44;;;;;;;3.45;1.90;;;;;;;41.61;5.33;99224.22;5051235;28;20025;-59
2021/05/07 06:20:13;;;;;;;1.85;0.93;;;;;;;41.71;5.12;99226.56;5051091;28;20132;-61
2021/05/07 06:22:39;;;;;;;2.20;1.00;;;;;;;41.67;5.01;99230.44;5051183;28;20043;-59
2021/05/07 06:25:10;;;;;;;2.50;0.88;;;;;;;41.66;4.60;99229.63;5051218;28;20095;-59
2021/05/07 06:27:36;;;;;;;1.58;0.90;;;;;;;42.10;5.41;99228.28;5046785;28;20037;-60
2021/05/07 06:30:06;;;;;;;3.08;0.90;;;;;;;41.89;4.70;99215.94;5048172;28;20037;-60
2021/05/07 06:32:32;;;;;;;1.00;0.80;;;;;;;42.58;4.82;99234.22;5050119;28;20091;-60
2021/05/07 06:34:57;;;;;;;2.83;1.15;;;;;;;42.98;4.72;99241.88;5046218;28;20064;-60
2021/05/07 06:37:23;;;;;;;2.05;1.02;;;;;;;43.26;4.39;99224.13;5041378;28;20040;-60
2021/05/07 06:39:48;;;;;;;1.02;0.90;;;;;;;42.95;4.76;99214.44;5050985;28;20055;-61
2021/05/07 06:42:14;;;;;;;1.55;0.93;;;;;;;43.53;4.08;99223.66;5051047;28;20136;-61
2021/05/07 06:44:39;;;;;;;1.75;1.00;;;;;;;43.85;4.01;99227.31;5051060;28;20025;-61
2021/05/07 06:47:06;;;;;;;2.65;1.10;;;;;;;44.00;4.00;99228.50;5050913;28;20037;-60
2021/05/07 06:49:31;;;;;;;1.33;1.10;;;;;;;43.31;4.30;99242.81;5045553;28;20037;-60
2021/05/07 06:51:57;;;;;;;1.92;1.13;;;;;;;43.51;4.12;99243.75;5050889;28;20501;-60
2021/05/07 06:54:31;;;;;;;2.15;0.95;;;;;;;43.38;3.82;99225.28;5050477;28;20120;-58
2021/05/07 06:56:57;;;;;;;;;;;;;;;43.48;4.64;99267.03;5050127;28;20033;-58
2021/05/07 06:59:24;;;;;;;3.10;1.27;;;;;;;40.00;5.80;99255.75;5049166;28;19924;-59
2021/05/07 07:01:49;;;;;;;1.52;1.40;;;;;;;40.57;5.45;99247.22;5049975;28;20029;-59
2021/05/07 07:04:15;;;;;;;2.30;1.17;;;;;;;41.94;4.55;99247.78;5050544;28;20040;-60
2021/05/07 07:06:40;;;;;;;4.30;1.00;;;;;;;41.89;4.52;99246.03;5050024;28;20182;-58
2021/05/07 07:09:06;;;;;;;4.72;1.50;;;;;;;40.15;5.46;99209.50;5049957;28;20036;-59
2021/05/07 07:11:31;;;;;;;1.67;1.30;;;;;;;40.48;5.54;99219.22;5049984;28;20032;-59
2021/05/07 07:13:57;;;;;;;2.13;1.20;;;;;;;42.26;4.74;99254.50;5051074;28;20043;-57
2021/05/07 07:16:22;;;;;;;2.03;1.25;;;;;;;43.62;3.79;99260.13;5048913;28;20029;-59
2021/05/07 07:18:48;;;;;;;2.72;1.60;;;;;;;44.57;3.30;99264.13;5050050;28;20039;-60
2021/05/07 07:21:13;;;;;;;2.30;1.30;;;;;;;45.05;2.94;99252.69;5049971;28;20151;-58
2021/05/07 07:23:39;;;;;;;1.70;1.23;;;;;;;45.09;2.77;99275.34;5050058;28;20040;-58
2021/05/07 07:26:05;;;;;;;1.95;1.30;;;;;;;43.97;3.49;99262.25;5050172;28;20041;-58
2021/05/07 07:28:37;;;;;;;4.32;1.67;;;;;;;44.21;2.89;99277.38;5049503;28;20068;-60
2021/05/07 07:31:06;;;;;;;2.47;1.45;;;;;;;44.71;2.93;99250.34;5049709;28;20060;-59
2021/05/07 07:33:32;;;;;;;2.20;1.23;;;;;;;45.56;2.85;99253.69;5050115;28;20517;-59
2021/05/07 07:35:58;;;;;;;3.35;1.05;;;;;;;46.55;2.33;99254.16;5049817;28;20060;-59
2021/05/07 07:38:25;;;;;;;1.98;1.00;;;;;;;46.28;2.40;99271.09;5049649;28;20037;-65
2021/05/07 07:40:51;;;;;;;3.05;1.27;;;;;;;45.38;2.19;99259.81;5049878;28;20951;-60
2021/05/07 07:43:18;;;;;;;1.08;0.98;;;;;;;45.33;2.42;99268.59;5049598;28;20041;-59
2021/05/07 07:45:44;;;;;;;1.05;0.93;;;;;;;45.35;2.31;99273.88;5049594;28;20108;-60
2021/05/07 07:48:11;;;;;;;2.17;1.25;;;;;;;43.94;2.77;99279.91;5049302;28;20137;-58
2021/05/07 07:50:37;;;;;;;1.95;0.93;;;;;;;41.32;4.11;99271.75;5049918;28;20029;-57
2021/05/07 07:53:02;;;;;;;4.05;1.60;;;;;;;38.66;5.25;99269.34;5048439;28;20037;-59
2021/05/07 07:55:28;;;;;;;1.27;1.10;;;;;;;35.42;7.00;99272.50;5047988;28;20040;-58
2021/05/07 07:57:53;;;;;;;2.80;0.90;;;;;;;33.48;7.77;99281.75;5047927;28;20068;-59
2021/05/07 08:00:19;;;;;;;4.35;1.80;;;;;;;34.06;7.47;99283.75;5048238;28;20485;-59
2021/05/07 08:02:46;;;;;;;3.30;0.70;;;;;;;33.13;8.11;99270.63;5048064;28;20493;-58
2021/05/07 08:05:12;;;;;;;0.98;0.60;;;;;;;30.36;9.80;99284.09;5047736;28;20025;-60
2021/05/07 08:07:37;;;;;;;2.85;0.85;;;;;;;28.03;11.69;99278.16;5046533;28;20057;-61
2021/05/07 08:10:05;;;;;;;2.53;0.90;;;;;;;25.96;13.35;99285.22;5049590;28;20070;-58
2021/05/07 08:12:30;;;;;;;1.27;0.80;;;;;;;24.44;14.45;99260.47;5049977;28;20041;-59
2021/05/07 08:14:57;;;;;;;1.38;0.88;;;;;;;23.49;15.58;99300.69;5049909;28;20051;-58
2021/05/07 08:17:23;;;;;;;1.30;0.93;;;;;;;23.03;16.10;99297.16;5049816;28;20611;-58
2021/05/07 08:19:48;;;;;;;3.60;0.90;;;;;;;22.50;16.39;99289.03;5053832;28;20040;-61
2021/05/07 08:22:14;;;;;;;1.58;0.63;;;;;;;21.96;16.16;99282.84;5053622;28;20036;-57
2021/05/07 08:24:40;;;;;;;3.33;1.27;;;;;;;21.50;16.71;99287.25;5053277;28;20049;-58
2021/05/07 08:27:06;;;;;;;1.50;0.90;;;;;;;21.00;17.21;99296.59;5053240;28;20139;-59
2021/05/07 08:29:31;;;;;;;5.38;1.13;;;;;;;20.74;17.58;99290.00;5053195;28;20098;-58
2021/05/07 08:31:56;;;;;;;3.58;0.95;;;;;;;20.32;18.50;99276.41;5052688;28;20032;-57
2021/05/07 08:34:22;;;;;;;1.63;0.70;;;;;;;19.89;18.52;99292.84;5053314;28;20045;-56
2021/05/07 08:36:50;;;;;;;2.55;0.70;;;;;;;19.65;19.19;99275.94;5053392;28;20032;-55
2021/05/07 08:39:16;;;;;;;1.40;0.80;;;;;;;19.40;19.08;99237.53;5063688;28;20041;-54
2021/05/07 08:41:43;;;;;;;3.58;0.73;;;;;;;19.66;19.14;99296.66;5053395;28;20086;-53
2021/05/07 08:44:10;;;;;;;5.35;0.82;;;;;;;19.47;18.99;99260.13;5053094;28;20053;-49
2021/05/07 08:46:39;;;;;;;1.88;0.70;;;;;;;19.54;18.60;99279.19;5052684;28;20396;-50
2021/05/07 08:49:05;;;;;;;3.08;1.10;;;;;;;19.59;18.82;99269.44;5049914;28;20127;-54
2021/05/07 08:51:30;;;;;;;0.95;0.60;;;;;;;19.80;19.05;99270.44;5033127;28;20564;-53
2021/05/07 08:53:56;;;;;;;1.25;0.55;;;;;;;19.95;18.89;99281.22;5032580;28;20080;-55
2021/05/07 08:56:21;;;;;;;3.55;1.00;;;;;;;19.92;18.94;99260.72;5032750;28;20131;-54
2021/05/07 08:58:47;;;;;;;3.80;0.82;;;;;;;19.87;18.98;99276.75;5032711;28;20037;-53
2021/05/07 09:01:12;;;;;;;1.45;0.70;;;;;;;19.47;19.15;99222.97;5032604;28;20052;-55
2021/05/07 09:03:45;;;;;;;1.25;0.60;;;;;;;20.02;19.21;99273.13;5032717;28;20052;-54
2021/05/07 09:06:53;;;;;;;1.58;0.85;;;;;;;20.33;18.69;99271.81;5032050;28;20043;-54
2021/05/07 09:09:29;;;;;;;3.05;0.85;;;;;;;20.55;18.63;99277.97;5032515;28;20046;-63
2021/05/07 09:11:57;;;;;;;1.42;0.50;;;;;;;20.80;18.38;99277.47;5032247;28;20128;-61
2021/05/07 09:14:24;;;;;;;0.50;0.50;;;;;;;20.79;17.85;99282.09;5032590;28;20048;-59
2021/05/07 09:16:55;;;;;;;2.45;1.10;;;;;;;20.67;17.91;99282.84;5032588;28;20067;-60
2021/05/07 09:19:23;;;;;;;4.28;0.80;;;;;;;20.43;17.20;99276.91;5032420;28;20037;-59
2021/05/07 09:21:49;;;;;;;3.15;0.88;;;;;;;20.11;17.36;99265.63;5032276;28;20473;-59
2021/05/07 09:24:17;;;;;;;4.22;0.63;;;;;;;19.66;17.76;99288.50;5032224;28;20064;-61
2021/05/07 09:26:50;;;;;;;1.45;0.85;;;;;;;19.34;18.13;99277.16;5032426;28;20037;-60
2021/05/07 09:29:23;;;;;;;2.05;0.60;;;;;;;19.09;19.40;99272.13;5031740;28;20125;-61
2021/05/07 09:31:51;;;;;;;2.40;0.88;;;;;;;19.03;19.74;99279.16;5032263;28;20120;-60
2021/05/07 09:34:21;;;;;;;2.50;0.90;;;;;;;19.16;18.96;99286.56;5031900;28;20033;-59
2021/05/07 09:36:48;;;;;;;3.70;1.08;;;;;;;19.19;18.43;99277.22;5032395;28;20109;-61
2021/05/07 09:39:20;;;;;;;4.45;0.85;;;;;;;19.24;17.81;99280.19;5030240;28;20116;-61
2021/05/07 09:41:52;;;;;;;2.15;0.70;;;;;;;19.32;17.82;99293.66;5031604;28;20504;-60
2021/05/07 09:44:23;;;;;;;4.45;0.80;;;;;;;19.30;17.96;99290.28;5031874;28;20046;-60
2021/05/07 09:46:51;;;;;;;3.25;0.90;;;;;;;19.23;18.17;99283.94;5031717;28;20029;-62
2021/05/07 09:49:32;;;;;;;1.52;1.08;;;;;;;19.08;18.15;99276.72;5052249;28;20035;-54
2021/05/07 09:51:58;;;;;;;2.40;0.80;;;;;;;18.47;18.74;99236.38;5050567;28;20032;-57
2021/05/07 09:54:25;;;;;;;3.30;0.98;;;;;;;18.61;19.10;99297.00;5054455;28;20035;-60
2021/05/07 09:56:51;;;;;;;2.65;0.88;;;;;;;18.51;19.11;99284.56;5071925;28;20036;-58
2021/05/07 09:59:18;;;;;;;3.30;0.90;;;;;;;18.51;18.73;99286.47;5071700;28;20036;-56
2021/05/07 10:01:45;;;;;;;3.42;1.02;;;;;;;18.56;19.15;99307.56;5069826;28;20502;-57
2021/05/07 10:04:12;;;;;;;3.70;1.20;;;;;;;18.43;19.25;99305.50;5086631;28;20123;-54
2021/05/07 10:06:38;;;;;;;2.50;1.10;;;;;;;17.92;19.05;99247.47;5071211;28;20518;-61
2021/05/07 10:09:04;;;;;;;3.65;1.25;;;;;;;18.15;19.45;99301.63;5071458;28;20032;-60
2021/05/07 10:11:36;;;;;;;1.90;1.00;;;;;;;18.27;19.64;99293.00;5071273;28;20036;-56
2021/05/07 10:14:07;;;;;;;2.85;0.90;;;;;;;18.49;19.79;99299.38;5071059;28;20519;-59
2021/05/07 10:16:35;;;;;;;1.27;0.85;;;;;;;18.60;19.19;99268.22;5070710;28;20036;-52
2021/05/07 10:19:11;;;;;;;5.95;1.20;;;;;;;19.14;18.60;99301.38;5059665;28;20033;-56
2021/05/07 10:21:45;;;;;;;3.00;1.10;;;;;;;19.27;18.12;99290.66;5051200;28;20057;-54
2021/05/07 10:24:13;;;;;;;3.65;1.05;;;;;;;19.33;18.03;99295.31;5050956;28;20059;-54
2021/05/07 10:26:53;;;;;;;2.10;1.30;;;;;;;19.49;18.27;99301.50;5050936;28;20090;-60
2021/05/07 10:29:27;;;;;;;3.17;1.15;;;;;;;19.51;17.75;99285.84;5050420;28;20117;-55
2021/05/07 10:31:54;;;;;;;3.13;1.08;;;;;;;19.27;18.03;99290.66;5050698;28;20047;-54
2021/05/07 10:34:21;;;;;;;1.73;1.27;;;;;;;18.96;17.74;99288.22;5050458;28;20404;-55
2021/05/07 10:36:50;;;;;;;2.17;1.00;;;;;;;18.75;18.02;99303.44;5046537;28;20035;-51
2021/05/07 10:39:29;;;;;;;1.58;1.13;;;;;;;18.39;18.17;99248.16;5033040;28;20574;-56
2021/05/07 10:41:58;;;;;;;3.00;1.20;;;;;;;18.65;18.00;99298.31;5030277;28;20116;-55
2021/05/07 10:44:25;;;;;;;2.30;1.10;;;;;;;18.62;18.16;99282.44;5029698;28;20037;-57
2021/05/07 10:47:11;;;;;;;7.32;1.40;;;;;;;18.81;18.28;99302.66;5031077;28;20044;-58
2021/05/07 10:49:39;;;;;;;4.43;1.10;;;;;;;18.38;18.07;99253.75;5031015;28;20179;-49
2021/05/07 10:52:06;;;;;;;5.40;1.23;;;;;;;18.43;17.96;99298.25;5030967;28;20505;-54
2021/05/07 10:54:47;;;;;;;3.63;1.00;;;;;;;18.58;18.05;99302.81;5029642;28;20037;-59
2021/05/07 10:57:22;;;;;;;1.45;0.70;;;;;;;18.53;17.88;99311.50;5030584;28;20091;-59
2021/05/07 11:00:03;;;;;;;5.18;1.15;;;;;;;18.40;18.25;99314.03;5049138;28;20091;-57
2021/05/07 11:02:47;;;;;;;2.20;1.20;;;;;;;18.24;18.28;99304.22;5050540;28;20091;-58
2021/05/07 11:05:34;;;;;;;3.10;1.17;;;;;;;18.08;18.72;99316.91;5046205;28;20049;-57
2021/05/07 11:07:59;;;;;;;2.25;1.00;;;;;;;18.21;18.75;99309.00;5040633;28;20598;-59
2021/05/07 11:10:28;;;;;;;4.60;1.23;;;;;;;18.55;18.88;99306.72;5030187;28;20041;-56
2021/05/07 11:12:54;;;;;;;5.25;1.45;;;;;;;18.80;18.65;99304.53;5030065;28;20096;-60
2021/05/07 11:15:20;;;;;;;3.55;1.38;;;;;;;18.71;18.34;99294.00;5040713;28;20029;-55
2021/05/07 11:17:56;;;;;;;2.40;1.05;;;;;;;18.61;18.45;99297.00;5050167;28;20066;-56
2021/05/07 11:20:35;;;;;;;3.00;1.33;;;;;;;18.66;18.66;99300.00;5049718;28;20029;-55
2021/05/07 11:23:04;;;;;;;5.60;1.52;;;;;;;18.45;18.78;99276.38;5049608;28;20151;-55
2021/05/07 11:25:31;;;;;;;3.45;1.35;;;;;;;18.36;19.01;99297.31;5047821;28;20056;-56
2021/05/07 11:27:58;;;;;;;4.70;1.27;;;;;;;18.29;19.20;99294.50;5047584;28;20040;-55
2021/05/07 11:30:24;;;;;;;3.47;1.33;;;;;;;18.25;19.30;99305.91;5047882;28;20075;-57
2021/05/07 11:32:50;;;;;;;3.97;1.30;;;;;;;18.22;18.92;99283.56;5047005;28;20064;-57
2021/05/07 11:35:15;;;;;;;4.50;1.60;;;;;;;18.34;18.49;99291.25;5048027;28;20056;-58
2021/05/07 11:37:44;;;;;;;4.88;1.60;;;;;;;18.41;18.71;99275.91;5048042;28;20131;-60
2021/05/07 11:40:15;;;;;;;4.22;1.20;;;;;;;18.72;18.43;99287.56;5049237;28;20029;-60
2021/05/07 11:42:43;;;;;;;3.08;1.30;;;;;;;18.85;18.17;99281.44;5050633;28;20029;-63